Latest Weather Observations for Flinders Island Airport

IDT60801

Issued at 2:41 am EST Friday 26 April 2019 (issued every 10 minutes, with the page automatically refreshed every 10 minutes)

About weather observations | Map of weather stations | Latest weather observations for TAS | Other Formats
Station Details ID: 099005 Name: FLINDERS ISLAND AIRPORT Lat: -40.09 Lon: 148.00 Height: 9.0 m
Data from the previous 72 hours. | See also: Recent months at Flinders Island Airport
Date/Time
EST
Temp
°C
App
Temp
°C
Dew
Point
°C
Rel
Hum
%
Delta-T
°C
Wind Press
QNH
hPa
Press
MSL
hPa
Rain since
9am
mm
Dir  Spd
km/h
Gust
km/h
Spd
kts
Gust
kts
26/02:38am 14.2 6.5 13.4 95 0.4 WNW 46 67 25 36 1007.1 1007.1 2.4
26/02:36am 14.3 6.7 13.5 95 0.4 WNW 46 63 25 34 1007.1 1007.1 2.2
26/02:33am 14.3 7.3 13.7 96 0.3 WNW 43 63 23 34 1007.1 1007.1 2.2
26/02:30am 14.3 7.3 13.8 97 0.3 WNW 43 57 23 31 1007.0 1007.0 2.2
26/02:27am 14.0 7.0 13.7 98 0.2 WNW 43 61 23 33 1007.1 1007.1 2.2
26/02:08am 15.3 6.7 12.8 85 1.4 WNW 50 63 27 34 1007.3 1007.3 1.2
26/02:00am 16.2 8.0 11.6 74 2.5 NW 46 61 25 33 1007.2 1007.2 1.0
26/01:30am 16.2 7.1 11.2 72 2.7 NW 50 72 27 39 1007.6 1007.6 1.0
26/01:00am 16.1 7.6 10.6 70 2.9 WNW 46 74 25 40 1008.0 1008.0 1.0
26/12:30am 15.2 7.6 12.5 84 1.5 WNW 44 67 24 36 1008.7 1008.7 1.0
26/12:09am 15.8 6.7 11.4 75 2.4 WNW 50 69 27 37 1008.8 1008.8 1.0
26/12:00am 15.9 6.3 10.7 71 2.8 WNW 52 67 28 36 1008.7 1008.7 1.0
 
Date/Time
EST
Temp
°C
App
Temp
°C
Dew
Point
°C
Rel
Hum
%
Delta-T
°C
Wind Press
QNH
hPa
Press
MSL
hPa
Rain since
9am
mm
Dir  Spd
km/h
Gust
km/h
Spd
kts
Gust
kts
25/11:30pm 15.4 7.4 12.3 82 1.7 WNW 46 61 25 33 1009.5 1009.5 1.0
25/11:00pm 16.1 7.6 10.6 70 2.9 WNW 46 67 25 36 1009.9 1009.9 0.6
25/10:37pm 15.7 7.6 12.1 79 2.0 WNW 46 69 25 37 1010.2 1010.2 0.6
25/10:30pm 15.5 7.5 12.3 81 1.7 WNW 46 63 25 34 1010.2 1010.2 0.6
25/10:06pm 15.3 7.4 11.5 78 2.0 WNW 44 63 24 34 1010.9 1010.9 0.6
25/10:00pm 15.2 8.1 12.2 82 1.6 WNW 41 56 22 30 1010.9 1010.9 0.6
25/09:46pm 14.4 7.6 12.1 86 1.2 WNW 39 56 21 30 1011.2 1011.2 0.6
25/09:40pm 14.1 6.0 12.1 88 1.1 WNW 46 65 25 35 1011.3 1011.3 0.6
25/09:30pm 14.0 5.9 13.2 95 0.4 W 48 61 26 33 1011.6 1011.6 0.6
25/09:23pm 14.2 6.0 12.8 91 0.8 W 48 63 26 34 1011.6 1011.6 0.0
25/09:16pm 15.7 8.3 11.1 74 2.5 WNW 41 63 22 34 1011.6 1011.6 0.0
25/09:00pm 15.6 7.9 11.4 76 2.3 WNW 43 57 23 31 1011.8 1011.8 0.0
25/08:31pm 15.4 8.3 12.2 81 1.7 WNW 41 59 22 32 1012.2 1012.2 0.0
25/08:30pm 15.4 8.3 12.2 81 1.7 WNW 41 54 22 29 1012.2 1012.2 0.0
25/08:08pm 15.8 7.9 11.4 75 2.4 WNW 44 63 24 34 1012.3 1012.3 0.0
25/08:00pm 15.9 8.0 10.9 72 2.7 WNW 43 59 23 32 1012.2 1012.2 0.0
25/07:30pm 16.0 8.1 9.2 64 3.5 WNW 41 57 22 31 1012.3 1012.3 0.0
25/07:15pm 15.8 6.8 10.3 70 2.9 WNW 48 69 26 37 1012.4 1012.4 0.0
25/07:00pm 15.7 7.6 10.7 72 2.7 WNW 44 57 24 31 1012.6 1012.6 0.0
25/06:42pm 15.5 7.5 10.3 71 2.7 WNW 43 63 23 34 1012.6 1012.6 0.0
25/06:30pm 15.3 7.2 10.7 74 2.4 WNW 44 56 24 30 1012.9 1012.9 0.0
25/06:00pm 15.6 7.3 10.2 70 2.8 WNW 44 56 24 30 1012.7 1012.7 0.0
25/05:30pm 15.2 8.2 11.4 78 2.0 WNW 39 59 21 32 1013.1 1013.1 0.0
25/05:05pm 14.5 8.3 11.3 81 1.7 WNW 35 54 19 29 1013.1 1013.1 0.0
25/05:00pm 14.8 8.0 12.1 84 1.5 WNW 39 54 21 29 1013.2 1013.2 0.0
25/04:30pm 16.0 8.9 9.7 66 3.3 WNW 37 50 20 27 1013.3 1013.3 0.0
25/04:19pm 16.2 8.6 9.2 63 3.6 WNW 39 57 21 31 1013.5 1013.5 0.0
25/04:00pm 16.1 8.6 9.5 65 3.4 W 39 54 21 29 1013.7 1013.7 0.0
25/03:30pm 16.2 8.3 9.2 63 3.6 W 41 52 22 28 1013.8 1013.8 0.0
25/03:00pm 16.6 8.8 9.8 64 3.6 W 41 56 22 30 1014.2 1014.2 0.0
25/02:30pm 16.7 8.9 8.4 58 4.2 WNW 39 50 21 27 1014.6 1014.6 0.0
25/02:00pm 16.9 8.3 8.3 57 4.4 W 43 56 23 30 1014.9 1014.9 0.0
25/01:30pm 16.7 9.1 9.1 61 3.9 WNW 39 48 21 26 1015.2 1015.2 0.0
25/01:00pm 17.0 8.9 10.1 64 3.6 W 43 56 23 30 1015.6 1015.6 0.0
25/12:34pm 17.0 10.3 11.1 68 3.2 W 37 56 20 30 1015.9 1015.9 0.0
25/12:30pm 16.9 11.0 11.0 68 3.2 W 33 48 18 26 1015.9 1015.9 0.0
25/12:00pm 17.3 11.7 12.0 71 2.9 W 33 43 18 23 1016.3 1016.3 0.0
25/11:30am 15.9 9.3 12.5 80 1.9 W 39 56 21 30 1016.7 1016.7 0.0
25/11:00am 17.0 10.2 12.1 73 2.7 W 39 50 21 27 1016.9 1016.9 0.0
25/10:30am 16.9 9.7 10.5 66 3.4 W 39 50 21 27 1017.0 1017.0 0.0
25/10:00am 17.4 10.2 10.5 64 3.7 W 39 50 21 27 1017.2 1017.2 0.0
25/09:30am 16.6 9.6 9.8 64 3.6 WNW 37 48 20 26 1017.4 1017.4 0.0
25/09:20am 16.6 10.0 10.0 65 3.5 W 35 56 19 30 1017.5 1017.5 0.0
25/09:00am 16.6 9.5 9.5 63 3.7 W 37 48 20 26 1017.6 1017.6 3.0
25/08:30am 16.1 9.3 10.8 71 2.8 W 37 46 20 25 1017.7 1017.7 3.0
25/08:00am 15.6 8.0 10.4 71 2.7 W 41 52 22 28 1017.7 1017.7 3.0
25/07:30am 15.5 7.7 11.3 76 2.3 W 43 52 23 28 1017.4 1017.4 3.0
25/07:00am 15.2 8.2 11.4 78 2.0 W 39 50 21 27 1017.2 1017.2 3.0
25/06:30am 15.0 7.2 11.2 78 2.0 W 43 54 23 29 1016.9 1016.9 3.0
25/06:00am 14.9 7.1 11.9 82 1.6 W 44 54 24 29 1016.7 1016.7 3.0
25/05:30am 15.0 7.0 12.3 84 1.5 WSW 46 54 25 29 1016.4 1016.4 3.0
25/05:02am 15.3 8.2 13.3 88 1.1 W 43 61 23 33 1016.1 1016.1 3.0
25/05:00am 15.3 8.9 13.3 88 1.1 W 39 56 21 30 1016.1 1016.1 3.0
25/04:30am 14.6 5.9 12.5 87 1.1 W 50 69 27 37 1016.0 1016.0 3.0
25/04:26am 15.4 8.2 13.8 90 0.9 W 44 69 24 37 1016.0 1016.0 3.0
25/04:00am 14.9 8.8 14.1 95 0.5 W 39 52 21 28 1016.2 1016.2 3.0
25/03:59am 14.8 8.7 14.2 96 0.3 W 39 52 21 28 1016.2 1016.2 3.0
25/03:40am 14.9 6.9 13.6 92 0.7 W 48 61 26 33 1016.2 1016.2 2.8
25/03:30am 16.0 8.6 12.4 79 2.0 WNW 43 59 23 32 1016.3 1016.3 2.8
25/03:00am 15.8 8.1 12.2 79 2.0 WNW 44 56 24 30 1016.4 1016.4 2.8
25/02:30am 15.9 9.1 12.1 78 2.1 WNW 39 50 21 27 1016.8 1016.8 2.8
25/02:00am 15.9 9.1 11.9 77 2.2 WNW 39 54 21 29 1017.1 1017.1 2.8
25/01:30am 15.6 7.9 11.4 76 2.3 WNW 43 54 23 29 1017.4 1017.4 2.8
25/01:00am 15.2 8.1 10.8 75 2.3 WNW 39 50 21 27 1017.7 1017.7 2.8
25/12:30am 15.2 8.0 10.4 73 2.5 WNW 39 50 21 27 1018.0 1017.9 2.8
25/12:00am 15.1 8.6 10.3 73 2.5 WNW 35 44 19 24 1018.2 1018.1 2.8
 
Date/Time
EST
Temp
°C
App
Temp
°C
Dew
Point
°C
Rel
Hum
%
Delta-T
°C
Wind Press
QNH
hPa
Press
MSL
hPa
Rain since
9am
mm
Dir  Spd
km/h
Gust
km/h
Spd
kts
Gust
kts
24/11:30pm 15.5 8.7 10.7 73 2.5 W 37 48 20 26 1018.5 1018.4 2.8
24/11:00pm 15.4 9.0 10.8 74 2.4 W 35 48 19 26 1018.8 1018.7 2.8
24/10:30pm 15.4 9.8 12.0 80 1.8 W 33 44 18 24 1018.9 1018.8 2.8
24/10:00pm 15.2 9.8 12.2 82 1.6 W 32 43 17 23 1019.1 1019.0 2.8
24/09:30pm 15.0 10.1 12.7 86 1.3 WNW 30 37 16 20 1019.2 1019.1 2.8
24/09:00pm 15.2 9.8 12.9 86 1.3 W 33 41 18 22 1019.2 1019.1 2.8
24/08:30pm 15.1 9.9 11.7 80 1.8 WNW 30 39 16 21 1019.4 1019.3 2.8
24/08:00pm 15.5 10.0 11.7 78 2.0 WNW 32 41 17 22 1019.5 1019.4 2.8
24/07:30pm 15.5 10.1 12.3 81 1.7 W 32 39 17 21 1019.6 1019.5 2.8
24/07:00pm 15.2 10.0 11.6 79 1.9 W 30 37 16 20 1019.8 1019.7 2.8
24/06:30pm 15.1 9.9 11.7 80 1.8 W 30 39 16 21 1019.7 1019.6 2.8
24/06:00pm 14.9 10.7 12.4 85 1.4 WNW 26 35 14 19 1019.5 1019.4 2.8
24/05:30pm 14.5 11.2 12.7 89 1.0 WNW 22 32 12 17 1019.1 1019.0 2.8
24/05:00pm 14.9 11.3 13.1 89 1.0 WNW 24 32 13 17 1019.1 1019.0 2.8
24/04:30pm 14.8 12.5 14.6 99 0.1 WNW 20 28 11 15 1019.4 1019.3 2.8
24/04:25pm 14.7 12.5 14.5 99 0.1 WNW 19 26 10 14 1019.4 1019.3 2.8
24/04:19pm 14.6 12.2 14.4 99 0.1 WNW 20 28 11 15 1019.5 1019.4 2.8
24/04:00pm 14.6 10.7 14.4 99 0.1 W 28 35 15 19 1019.8 1019.7 2.8
24/03:58pm 14.5 10.6 14.3 99 0.1 W 28 35 15 19 1019.8 1019.7 2.8
24/03:30pm 14.8 10.0 14.6 99 0.1 W 33 39 18 21 1020.1 1020.0 2.8
24/03:09pm 14.9 11.4 14.6 98 0.2 W 26 35 14 19 1020.1 1020.0 2.8
24/03:00pm 15.1 11.2 14.3 95 0.5 W 28 35 15 19 1020.1 1020.0 2.8
24/02:30pm 15.1 13.7 14.5 96 0.3 WNW 15 20 8 11 1019.8 1019.7 2.8
24/02:00pm 15.2 14.0 15.0 99 0.1 NW 15 19 8 10 1019.9 1019.8 2.8
24/01:30pm 14.8 13.8 14.6 99 0.1 NW 13 17 7 9 1020.7 1020.6 2.8
24/01:11pm 14.8 13.4 14.6 99 0.1 WNW 15 20 8 11 1021.0 1020.9 2.8
24/01:00pm 14.7 13.3 14.4 98 0.2 WNW 15 22 8 12 1021.1 1021.0 2.6
24/12:58pm 14.8 13.0 14.5 98 0.2 WNW 17 22 9 12 1021.1 1021.0 2.6
24/12:30pm 14.8 13.1 14.6 99 0.1 WNW 17 22 9 12 1021.5 1021.4 2.6
24/12:00pm 14.9 13.6 14.7 99 0.1 NW 15 19 8 10 1022.1 1022.0 2.6
24/11:30am 14.7 13.3 14.5 99 0.1 NW 15 19 8 10 1022.4 1022.3 2.6
24/11:16am 14.9 13.9 14.7 99 0.1 NW 13 17 7 9 1022.6 1022.5 2.6
24/11:00am 15.0 14.0 14.5 97 0.3 NW 13 17 7 9 1022.6 1022.5 2.6
24/10:48am 15.1 14.6 14.8 98 0.2 NNW 11 15 6 8 1022.4 1022.3 2.6
24/10:30am 14.8 14.6 14.6 99 0.1 N 9 13 5 7 1022.6 1022.5 2.4
24/10:18am 14.7 14.4 14.5 99 0.1 NNW 9 13 5 7 1023.0 1022.9 2.4
24/10:00am 14.8 14.6 14.6 99 0.1 NNW 9 13 5 7 1023.2 1023.1 2.2
24/09:30am 14.5 14.2 14.3 99 0.1 NNW 9 11 5 6 1023.4 1023.3 2.2
24/09:26am 14.4 14.0 14.2 99 0.1 NNW 9 11 5 6 1023.4 1023.3 2.2
24/09:02am 14.8 14.1 14.2 96 0.3 WNW 11 13 6 7 1023.7 1023.6 0.8
24/09:00am 14.9 14.6 14.3 96 0.3 WNW 9 13 5 7 1023.7 1023.6 0.8
24/08:30am 14.8 14.6 14.6 99 0.1 NNW 9 13 5 7 1023.8 1023.7 0.2
24/08:00am 13.3 13.1 13.1 99 0.1 NNE 6 7 3 4 1023.8 1023.7 0.2
24/07:30am 11.7 11.4 11.5 99 0.1 NNE 4 7 2 4 1023.8 1023.7 0.2
24/07:00am 11.4 11.4 11.2 99 0.1 N 2 7 1 4 1023.6 1023.5 0.2
24/06:30am 11.3 11.3 11.1 99 0.1 N 2 7 1 4 1023.7 1023.6 0.2
24/06:00am 11.6 10.9 11.4 99 0.1 N 6 9 3 5 1023.7 1023.6 0.2
24/05:30am 11.8 11.5 11.6 99 0.1 NNE 4 6 2 3 1023.9 1023.8 0.0
24/05:00am 11.7 11.0 11.5 99 0.1 NNE 6 9 3 5 1023.9 1023.8 0.0
24/04:30am 11.4 11.0 11.2 99 0.1 NNW 4 11 2 6 1023.9 1023.8 0.0
24/04:00am 11.4 9.3 11.2 99 0.1 WNW 13 15 7 8 1024.2 1024.1 0.0
24/03:30am 11.6 9.6 11.4 99 0.1 WNW 13 17 7 9 1024.3 1024.2 0.0
24/03:00am 11.2 8.7 11.0 99 0.1 W 15 19 8 10 1024.5 1024.4 0.0
24/02:30am 10.4 8.0 10.2 99 0.1 W 13 19 7 10 1024.9 1024.8 0.0
24/02:00am 9.7 8.3 9.6 99 0.0 NNE 7 11 4 6 1025.3 1025.2 0.0
24/01:30am 9.7 8.5 9.6 99 0.0 NNE 6 9 3 5 1025.7 1025.6 0.0
24/01:00am 9.6 8.4 9.5 99 0.0 NNE 6 9 3 5 1025.9 1025.8 0.0
24/12:30am 8.6 6.6 8.5 99 0.0 ENE 9 13 5 7 1026.2 1026.1 0.0
24/12:00am 7.8 5.9 7.7 99 0.0 ENE 7 9 4 5 1026.3 1026.2 0.0
 
Date/Time
EST
Temp
°C
App
Temp
°C
Dew
Point
°C
Rel
Hum
%
Delta-T
°C
Wind Press
QNH
hPa
Press
MSL
hPa
Rain since
9am
mm
Dir  Spd
km/h
Gust
km/h
Spd
kts
Gust
kts
23/11:30pm 7.3 4.9 7.2 99 0.0 NE 9 9 5 5 1026.5 1026.5 0.0
23/11:00pm 7.3 4.9 7.2 99 0.0 ENE 9 11 5 6 1026.7 1026.7 0.0
23/10:30pm 7.3 4.9 7.2 99 0.0 NE 9 11 5 6 1026.9 1026.9 0.0
23/10:00pm 7.6 5.6 7.0 96 0.3 NNE 7 7 4 4 1027.0 1027.0 0.0
23/09:30pm 9.0 5.8 7.0 87 0.9 W 13 17 7 9 1027.0 1027.0 0.0
23/09:00pm 13.6 10.9 10.4 81 1.7 W 15 19 8 10 1027.0 1027.0 0.0
23/08:30pm 13.4 10.6 10.0 80 1.8 W 15 19 8 10 1027.0 1027.0 0.0
23/08:00pm 13.5 11.2 10.5 82 1.6 W 13 19 7 10 1027.0 1027.0 0.0
23/07:30pm 13.9 10.4 10.3 79 1.9 W 19 24 10 13 1027.1 1027.1 0.0
23/07:00pm 14.1 10.6 10.1 77 2.1 W 19 24 10 13 1027.0 1027.0 0.0
23/06:30pm 14.5 10.7 9.9 74 2.4 W 20 26 11 14 1026.9 1026.9 0.0
23/06:00pm 14.6 10.4 9.8 73 2.5 W 22 26 12 14 1026.6 1026.6 0.0
23/05:30pm 14.8 10.6 9.8 72 2.6 W 22 28 12 15 1026.3 1026.2 0.0
23/05:00pm 15.3 10.8 9.9 70 2.8 W 24 30 13 16 1026.3 1026.2 0.0
23/04:30pm 15.9 11.8 10.0 68 3.1 W 22 28 12 15 1026.3 1026.2 0.0
23/04:00pm 16.3 12.4 9.3 63 3.6 W 20 28 11 15 1026.5 1026.5 0.0
23/03:30pm 16.5 12.6 9.4 63 3.7 W 20 28 11 15 1026.6 1026.6 0.0
23/03:00pm 16.8 12.5 9.5 62 3.8 W 22 28 12 15 1026.5 1026.5 0.0
23/02:30pm 16.6 12.8 9.8 64 3.6 W 20 28 11 15 1026.6 1026.6 0.0
23/02:00pm 16.3 12.0 9.5 64 3.5 WNW 22 30 12 16 1026.9 1026.9 0.0
23/01:30pm 17.0 12.4 9.7 62 3.8 W 24 30 13 16 1027.0 1027.0 0.0
23/01:00pm 17.4 13.6 9.8 61 4.0 W 20 30 11 16 1027.0 1027.0 0.0
23/12:30pm 17.4 13.9 10.1 62 3.9 WNW 19 30 10 16 1027.3 1027.3 0.0
23/12:00pm 16.4 13.1 9.6 64 3.5 WNW 17 26 9 14 1027.7 1027.7 0.0
23/11:30am 16.2 12.4 9.2 63 3.6 WNW 19 26 10 14 1028.1 1028.1 0.0
23/11:00am 16.5 12.8 9.4 63 3.7 W 19 26 10 14 1028.2 1028.2 0.0
23/10:30am 16.3 12.9 9.3 63 3.6 WNW 17 22 9 12 1028.4 1028.4 0.0
23/10:00am 16.0 13.0 9.4 65 3.4 WNW 15 24 8 13 1028.2 1028.2 0.0
23/09:30am 15.3 13.2 9.9 70 2.8 W 11 17 6 9 1028.4 1028.4 0.0
23/09:00am 15.0 12.7 10.6 75 2.3 W 13 17 7 9 1028.5 1028.5 0.0
23/08:30am 11.8 11.5 11.6 99 0.1 NE 4 9 2 5 1028.5 1028.5 0.0
23/08:00am 9.6 8.2 9.5 99 0.0 ENE 7 9 4 5 1028.3 1028.3 0.0
23/07:30am 7.8 5.2 7.7 99 0.0 ENE 11 11 6 6 1028.1 1028.1 0.0
23/07:00am 6.1 3.1 6.0 99 0.0 ENE 11 11 6 6 1027.9 1027.9 0.0
23/06:30am 5.9 2.9 5.8 99 0.0 ENE 11 13 6 7 1027.6 1027.6 0.0
23/06:00am 6.1 2.7 6.0 99 0.0 ENE 13 15 7 8 1027.3 1027.3 0.0
23/05:30am 5.7 2.2 5.6 99 0.0 ENE 13 15 7 8 1027.1 1027.1 0.0
23/05:00am 5.9 2.5 5.8 99 0.0 ENE 13 15 7 8 1027.1 1027.1 0.0
23/04:30am 5.8 2.7 5.7 99 0.0 ENE 11 13 6 7 1026.9 1026.9 0.0
23/04:00am 6.0 3.0 5.9 99 0.0 ENE 11 13 6 7 1026.7 1026.7 0.0
23/03:30am 6.4 3.1 6.3 99 0.0 ENE 13 15 7 8 1026.7 1026.7 0.0
23/03:00am 6.7 3.4 6.6 99 0.0 ENE 13 15 7 8 1026.8 1026.8 0.0

Other formats

Comma delimited format used in spreadsheet applications
http://www.bom.gov.au/fwo/IDT60801/IDT60801.94980.axf

JavaScript Object Notation format (JSON) in row-major order
http://www.bom.gov.au/fwo/IDT60801/IDT60801.94980.json

Data quality

Most of these data are generated automatically and are frequently updated. Quality checks on data are not normally performed. It is possible for incorrect values to appear. Refer to information at About Latest Weather Observations and please check the disclaimer before using these data.